SWA2631 KMCO-KPBI
Flight info
| Callsign | SWA2631 |
|---|---|
| Flight time | N/A |
| Altitude | 19000 |
| Route | DDANY3 BORRD CPTAN3 |
| Aircraft | B736/M-SDE2E3FGHIRWXY/LB1 |
Departure
| Time | N/A |
|---|---|
| Airport | Orlando International Airport (KMCO) |
Arrival
| Time | 2026-04-29 15:00 |
|---|---|
| Airport | Palm Beach International Airport (KPBI) |
| Time | Latitude | Longitude | Altitude | Speed | Heading |
|---|---|---|---|---|---|
| 2026-04-29 14:39 | 26.99326 | -80.00266 | 4765 ft | 268 kts | 156° |
| 2026-04-29 14:39 | 26.97644 | -79.99435 | 4422 ft | 267 kts | 156° |
| 2026-04-29 14:40 | 26.95865 | -79.98873 | 4063 ft | 266 kts | 179° |
| 2026-04-29 14:40 | 26.94110 | -79.99315 | 4006 ft | 256 kts | 204° |
| 2026-04-29 14:40 | 26.92627 | -80.00402 | 3989 ft | 254 kts | 217° |
| 2026-04-29 14:40 | 26.91240 | -80.01621 | 3979 ft | 253 kts | 218° |
| 2026-04-29 14:41 | 26.89859 | -80.02835 | 3981 ft | 251 kts | 217° |
| 2026-04-29 14:41 | 26.88533 | -80.03991 | 3977 ft | 231 kts | 217° |
| 2026-04-29 14:41 | 26.87313 | -80.05046 | 3954 ft | 212 kts | 217° |
| 2026-04-29 14:41 | 26.86206 | -80.06001 | 3948 ft | 193 kts | 217° |
| 2026-04-29 14:42 | 26.85168 | -80.06896 | 3958 ft | 185 kts | 217° |
| 2026-04-29 14:42 | 26.84148 | -80.07777 | 3973 ft | 186 kts | 217° |
| 2026-04-29 14:42 | 26.83120 | -80.08673 | 3991 ft | 189 kts | 218° |
| 2026-04-29 14:42 | 26.82078 | -80.09579 | 3972 ft | 191 kts | 217° |
| 2026-04-29 14:43 | 26.81050 | -80.10525 | 3970 ft | 191 kts | 228° |
| 2026-04-29 14:43 | 26.80572 | -80.11876 | 3991 ft | 188 kts | 264° |
| 2026-04-29 14:43 | 26.80467 | -80.13324 | 3975 ft | 188 kts | 264° |
| 2026-04-29 14:43 | 26.80363 | -80.14778 | 3972 ft | 187 kts | 265° |
| 2026-04-29 14:44 | 26.80259 | -80.16238 | 3973 ft | 187 kts | 264° |
| 2026-04-29 14:44 | 26.80155 | -80.17691 | 3961 ft | 188 kts | 265° |
| 2026-04-29 14:44 | 26.80050 | -80.19150 | 3981 ft | 189 kts | 265° |
| 2026-04-29 14:44 | 26.79934 | -80.20611 | 3966 ft | 192 kts | 264° |
| 2026-04-29 14:45 | 26.79787 | -80.22104 | 3889 ft | 192 kts | 264° |
| 2026-04-29 14:45 | 26.79636 | -80.23580 | 3847 ft | 190 kts | 263° |
| 2026-04-29 14:45 | 26.79480 | -80.25057 | 3799 ft | 191 kts | 263° |
| 2026-04-29 14:45 | 26.79322 | -80.26538 | 3754 ft | 192 kts | 263° |
| 2026-04-29 14:46 | 26.79159 | -80.28026 | 3716 ft | 193 kts | 262° |
| 2026-04-29 14:46 | 26.78989 | -80.29520 | 3654 ft | 194 kts | 262° |
| 2026-04-29 14:46 | 26.78815 | -80.31020 | 3598 ft | 193 kts | 262° |
| 2026-04-29 14:46 | 26.78645 | -80.32508 | 3550 ft | 192 kts | 262° |
| 2026-04-29 14:47 | 26.78475 | -80.33983 | 3500 ft | 190 kts | 262° |
| 2026-04-29 14:47 | 26.78317 | -80.35447 | 3456 ft | 189 kts | 262° |
| 2026-04-29 14:47 | 26.78143 | -80.36886 | 3405 ft | 188 kts | 262° |
| 2026-04-29 14:47 | 26.77982 | -80.38331 | 3367 ft | 187 kts | 262° |
| 2026-04-29 14:48 | 26.77814 | -80.39774 | 3326 ft | 186 kts | 262° |
| 2026-04-29 14:48 | 26.77656 | -80.41202 | 3287 ft | 184 kts | 263° |
| 2026-04-29 14:48 | 26.77514 | -80.42627 | 3246 ft | 184 kts | 262° |
| 2026-04-29 14:48 | 26.77347 | -80.44026 | 3211 ft | 183 kts | 262° |
| 2026-04-29 14:49 | 26.77177 | -80.45456 | 3181 ft | 183 kts | 263° |
| 2026-04-29 14:49 | 26.77029 | -80.46860 | 3161 ft | 185 kts | 262° |
| 2026-04-29 14:49 | 26.76867 | -80.48310 | 3059 ft | 190 kts | 261° |
| 2026-04-29 14:49 | 26.76679 | -80.49770 | 2978 ft | 188 kts | 261° |
| 2026-04-29 14:50 | 26.76492 | -80.51198 | 2983 ft | 186 kts | 261° |
| 2026-04-29 14:50 | 26.76328 | -80.52644 | 2978 ft | 187 kts | 262° |
| 2026-04-29 14:50 | 26.76011 | -80.54045 | 2958 ft | 186 kts | 233° |
| 2026-04-29 14:50 | 26.74951 | -80.54770 | 2975 ft | 183 kts | 183° |
| 2026-04-29 14:51 | 26.73718 | -80.54473 | 2982 ft | 186 kts | 150° |
| 2026-04-29 14:51 | 26.72820 | -80.53455 | 2966 ft | 185 kts | 118° |
| 2026-04-29 14:51 | 26.72208 | -80.52179 | 2970 ft | 186 kts | 118° |
| 2026-04-29 14:51 | 26.71597 | -80.50920 | 2958 ft | 182 kts | 118° |
| 2026-04-29 14:52 | 26.71006 | -80.49701 | 2951 ft | 178 kts | 118° |
| 2026-04-29 14:52 | 26.70411 | -80.48476 | 2965 ft | 181 kts | 118° |
| 2026-04-29 14:52 | 26.69989 | -80.47147 | 2965 ft | 184 kts | 94° |
| 2026-04-29 14:52 | 26.69934 | -80.45709 | 2970 ft | 185 kts | 93° |
| 2026-04-29 14:53 | 26.69852 | -80.44273 | 2966 ft | 185 kts | 94° |
| 2026-04-29 14:53 | 26.69761 | -80.42853 | 2967 ft | 185 kts | 94° |
| 2026-04-29 14:53 | 26.69690 | -80.41407 | 2969 ft | 185 kts | 93° |
| 2026-04-29 14:53 | 26.69624 | -80.39960 | 3005 ft | 191 kts | 93° |
| 2026-04-29 14:54 | 26.69556 | -80.38444 | 3024 ft | 197 kts | 93° |
| 2026-04-29 14:54 | 26.69486 | -80.36922 | 3026 ft | 200 kts | 93° |
| 2026-04-29 14:54 | 26.69416 | -80.35366 | 3017 ft | 200 kts | 93° |
| 2026-04-29 14:54 | 26.69345 | -80.33819 | 2997 ft | 199 kts | 93° |
| 2026-04-29 14:55 | 26.69275 | -80.32273 | 2996 ft | 198 kts | 93° |
| 2026-04-29 14:55 | 26.69205 | -80.30736 | 3000 ft | 198 kts | 93° |
| 2026-04-29 14:55 | 26.69136 | -80.29195 | 3004 ft | 198 kts | 93° |
| 2026-04-29 14:55 | 26.69066 | -80.27651 | 2914 ft | 200 kts | 93° |
| 2026-04-29 14:56 | 26.68998 | -80.26130 | 2667 ft | 188 kts | 93° |
| 2026-04-29 14:56 | 26.68935 | -80.24724 | 2441 ft | 173 kts | 93° |
| 2026-04-29 14:56 | 26.68877 | -80.23429 | 2232 ft | 159 kts | 93° |
| 2026-04-29 14:56 | 26.68823 | -80.22228 | 2089 ft | 156 kts | 93° |
| 2026-04-29 14:57 | 26.68769 | -80.21021 | 1838 ft | 153 kts | 93° |
| 2026-04-29 14:57 | 26.68716 | -80.19826 | 1632 ft | 154 kts | 93° |
| 2026-04-29 14:57 | 26.68663 | -80.18630 | 1428 ft | 154 kts | 93° |
| 2026-04-29 14:57 | 26.68611 | -80.17436 | 1226 ft | 154 kts | 93° |
| 2026-04-29 14:58 | 26.68558 | -80.16243 | 1027 ft | 152 kts | 92° |
| 2026-04-29 14:58 | 26.68507 | -80.15077 | 827 ft | 147 kts | 93° |
| 2026-04-29 14:58 | 26.68457 | -80.13956 | 656 ft | 142 kts | 94° |
| 2026-04-29 14:58 | 26.68407 | -80.12844 | 470 ft | 144 kts | 94° |
| 2026-04-29 14:59 | 26.68359 | -80.11721 | 277 ft | 141 kts | 91° |
| 2026-04-29 14:59 | 26.68317 | -80.10636 | 95 ft | 138 kts | 91° |
| 2026-04-29 14:59 | 26.68274 | -80.09647 | 33 ft | 117 kts | 90° |
| 2026-04-29 14:59 | 26.68239 | -80.08901 | 24 ft | 80 kts | 93° |
| 2026-04-29 15:00 | 26.68219 | -80.08402 | 31 ft | 55 kts | 95° |
| 2026-04-29 15:00 | 26.68262 | -80.08162 | 35 ft | 23 kts | 3° |
| 2026-04-29 15:00 | 26.68303 | -80.08179 | 35 ft | 0 kts | 310° |
| 2026-04-29 15:01 | 26.68317 | -80.08227 | 35 ft | 20 kts | 279° |
| 2026-04-29 15:01 | 26.68329 | -80.08496 | 30 ft | 41 kts | 274° |
| 2026-04-29 15:02 | 26.68422 | -80.08643 | 28 ft | 23 kts | 326° |
| 2026-04-29 15:02 | 26.68539 | -80.08753 | 26 ft | 22 kts | 331° |
| 2026-04-29 15:02 | 26.68633 | -80.08821 | 27 ft | 12 kts | 293° |
| 2026-04-29 15:02 | 26.68644 | -80.08903 | 27 ft | 7 kts | 274° |
| 2026-04-29 15:03 | 26.68644 | -80.08908 | 27 ft | 0 kts | 272° |